sensor_id;sensor_type;location;lat;lon;timestamp;P1;durP1;ratioP1;P2;durP2;ratioP2
7193;SDS011;3638;48.820;9.244;2022-12-01T00:01:19;32.83;;;20.33;;
7193;SDS011;3638;48.820;9.244;2022-12-01T00:03:46;29.23;;;18.47;;
7193;SDS011;3638;48.820;9.244;2022-12-01T00:06:14;29.60;;;18.97;;
7193;SDS011;3638;48.820;9.244;2022-12-01T00:08:43;31.53;;;19.57;;
7193;SDS011;3638;48.820;9.244;2022-12-01T00:11:26;27.03;;;18.73;;
7193;SDS011;3638;48.820;9.244;2022-12-01T00:13:52;28.77;;;18.83;;
7193;SDS011;3638;48.820;9.244;2022-12-01T00:16:21;32.10;;;20.43;;
7193;SDS011;3638;48.820;9.244;2022-12-01T00:18:48;28.27;;;17.83;;
7193;SDS011;3638;48.820;9.244;2022-12-01T00:21:16;28.47;;;17.90;;
7193;SDS011;3638;48.820;9.244;2022-12-01T00:23:45;27.27;;;18.63;;
7193;SDS011;3638;48.820;9.244;2022-12-01T00:26:14;29.10;;;18.23;;
7193;SDS011;3638;48.820;9.244;2022-12-01T00:28:43;31.83;;;19.70;;
7193;SDS011;3638;48.820;9.244;2022-12-01T00:31:14;31.17;;;20.07;;
7193;SDS011;3638;48.820;9.244;2022-12-01T00:33:43;29.90;;;20.40;;
7193;SDS011;3638;48.820;9.244;2022-12-01T00:36:09;31.33;;;20.13;;
7193;SDS011;3638;48.820;9.244;2022-12-01T00:38:37;31.07;;;20.40;;
7193;SDS011;3638;48.820;9.244;2022-12-01T00:41:04;32.37;;;20.70;;
7193;SDS011;3638;48.820;9.244;2022-12-01T00:43:31;29.90;;;19.27;;
7193;SDS011;3638;48.820;9.244;2022-12-01T00:45:58;30.83;;;19.23;;
7193;SDS011;3638;48.820;9.244;2022-12-01T00:48:25;31.40;;;19.37;;
7193;SDS011;3638;48.820;9.244;2022-12-01T00:50:53;31.23;;;19.47;;
7193;SDS011;3638;48.820;9.244;2022-12-01T00:53:21;29.13;;;18.83;;
7193;SDS011;3638;48.820;9.244;2022-12-01T00:55:48;27.30;;;19.57;;
7193;SDS011;3638;48.820;9.244;2022-12-01T00:58:17;28.47;;;18.53;;
7193;SDS011;3638;48.820;9.244;2022-12-01T01:00:45;27.93;;;18.63;;
7193;SDS011;3638;48.820;9.244;2022-12-01T01:03:12;30.07;;;18.93;;
7193;SDS011;3638;48.820;9.244;2022-12-01T01:05:39;26.73;;;18.17;;
7193;SDS011;3638;48.820;9.244;2022-12-01T01:08:09;31.50;;;19.27;;
7193;SDS011;3638;48.820;9.244;2022-12-01T01:10:39;29.07;;;19.90;;
7193;SDS011;3638;48.820;9.244;2022-12-01T01:13:07;31.67;;;18.20;;
7193;SDS011;3638;48.820;9.244;2022-12-01T01:15:35;30.60;;;20.23;;
7193;SDS011;3638;48.820;9.244;2022-12-01T01:18:02;29.40;;;19.40;;
7193;SDS011;3638;48.820;9.244;2022-12-01T01:20:30;30.17;;;19.67;;
7193;SDS011;3638;48.820;9.244;2022-12-01T01:22:57;28.77;;;19.13;;
7193;SDS011;3638;48.820;9.244;2022-12-01T01:25:25;28.83;;;19.60;;
7193;SDS011;3638;48.820;9.244;2022-12-01T01:27:52;29.17;;;19.53;;
7193;SDS011;3638;48.820;9.244;2022-12-01T01:30:19;26.50;;;18.50;;
7193;SDS011;3638;48.820;9.244;2022-12-01T01:32:46;27.53;;;19.40;;
7193;SDS011;3638;48.820;9.244;2022-12-01T01:35:13;28.00;;;19.47;;
7193;SDS011;3638;48.820;9.244;2022-12-01T01:37:40;28.93;;;19.27;;
7193;SDS011;3638;48.820;9.244;2022-12-01T01:40:07;29.67;;;18.90;;
7193;SDS011;3638;48.820;9.244;2022-12-01T01:42:37;27.67;;;18.70;;
7193;SDS011;3638;48.820;9.244;2022-12-01T01:45:10;28.10;;;18.03;;
7193;SDS011;3638;48.820;9.244;2022-12-01T01:47:46;27.57;;;17.90;;
7193;SDS011;3638;48.820;9.244;2022-12-01T01:50:17;28.87;;;19.43;;
7193;SDS011;3638;48.820;9.244;2022-12-01T01:52:49;29.07;;;19.27;;
7193;SDS011;3638;48.820;9.244;2022-12-01T01:55:20;26.07;;;17.90;;
7193;SDS011;3638;48.820;9.244;2022-12-01T01:57:48;26.17;;;17.60;;
7193;SDS011;3638;48.820;9.244;2022-12-01T02:00:16;28.67;;;18.67;;
7193;SDS011;3638;48.820;9.244;2022-12-01T02:02:46;26.00;;;17.83;;
7193;SDS011;3638;48.820;9.244;2022-12-01T02:05:15;26.00;;;16.97;;
7193;SDS011;3638;48.820;9.244;2022-12-01T02:07:46;26.70;;;17.77;;
7193;SDS011;3638;48.820;9.244;2022-12-01T02:10:14;24.53;;;16.40;;
7193;SDS011;3638;48.820;9.244;2022-12-01T02:12:52;25.43;;;16.67;;
7193;SDS011;3638;48.820;9.244;2022-12-01T02:15:32;24.33;;;16.63;;
7193;SDS011;3638;48.820;9.244;2022-12-01T02:18:07;23.50;;;16.33;;
7193;SDS011;3638;48.820;9.244;2022-12-01T02:24:17;26.27;;;16.80;;
7193;SDS011;3638;48.820;9.244;2022-12-01T02:27:47;26.37;;;17.63;;
7193;SDS011;3638;48.820;9.244;2022-12-01T02:30:52;25.73;;;17.20;;
7193;SDS011;3638;48.820;9.244;2022-12-01T02:33:25;26.30;;;17.97;;
7193;SDS011;3638;48.820;9.244;2022-12-01T02:35:59;25.47;;;17.40;;
7193;SDS011;3638;48.820;9.244;2022-12-01T02:38:34;24.67;;;17.17;;
7193;SDS011;3638;48.820;9.244;2022-12-01T02:41:06;23.50;;;16.33;;
7193;SDS011;3638;48.820;9.244;2022-12-01T02:43:39;25.33;;;16.63;;
7193;SDS011;3638;48.820;9.244;2022-12-01T02:46:14;24.70;;;17.20;;
7193;SDS011;3638;48.820;9.244;2022-12-01T02:48:48;23.53;;;16.77;;
7193;SDS011;3638;48.820;9.244;2022-12-01T02:51:27;24.57;;;17.27;;
7193;SDS011;3638;48.820;9.244;2022-12-01T02:53:57;24.90;;;16.60;;
7193;SDS011;3638;48.820;9.244;2022-12-01T02:56:26;23.40;;;16.47;;
7193;SDS011;3638;48.820;9.244;2022-12-01T02:58:53;25.37;;;17.13;;
7193;SDS011;3638;48.820;9.244;2022-12-01T03:01:26;28.20;;;17.70;;
7193;SDS011;3638;48.820;9.244;2022-12-01T03:04:14;25.10;;;17.47;;
7193;SDS011;3638;48.820;9.244;2022-12-01T03:07:09;26.37;;;17.90;;
7193;SDS011;3638;48.820;9.244;2022-12-01T03:09:58;24.60;;;16.40;;
7193;SDS011;3638;48.820;9.244;2022-12-01T03:12:41;26.60;;;17.00;;
7193;SDS011;3638;48.820;9.244;2022-12-01T03:15:27;24.70;;;17.57;;
7193;SDS011;3638;48.820;9.244;2022-12-01T03:18:02;24.53;;;17.63;;
7193;SDS011;3638;48.820;9.244;2022-12-01T03:20:39;24.03;;;16.77;;
7193;SDS011;3638;48.820;9.244;2022-12-01T03:23:13;25.43;;;17.50;;
7193;SDS011;3638;48.820;9.244;2022-12-01T03:25:44;24.37;;;16.83;;
7193;SDS011;3638;48.820;9.244;2022-12-01T03:28:17;27.20;;;18.10;;
7193;SDS011;3638;48.820;9.244;2022-12-01T03:30:52;26.30;;;17.63;;
7193;SDS011;3638;48.820;9.244;2022-12-01T03:33:28;25.30;;;16.73;;
7193;SDS011;3638;48.820;9.244;2022-12-01T03:36:00;26.60;;;17.73;;
7193;SDS011;3638;48.820;9.244;2022-12-01T03:38:32;26.47;;;18.43;;
7193;SDS011;3638;48.820;9.244;2022-12-01T03:41:04;26.87;;;18.23;;
7193;SDS011;3638;48.820;9.244;2022-12-01T03:43:35;27.80;;;18.10;;
7193;SDS011;3638;48.820;9.244;2022-12-01T03:46:08;26.87;;;18.23;;
7193;SDS011;3638;48.820;9.244;2022-12-01T03:48:42;23.97;;;17.03;;
7193;SDS011;3638;48.820;9.244;2022-12-01T03:51:11;27.83;;;17.47;;
7193;SDS011;3638;48.820;9.244;2022-12-01T03:53:46;27.27;;;18.47;;
7193;SDS011;3638;48.820;9.244;2022-12-01T03:56:19;27.17;;;18.53;;
7193;SDS011;3638;48.820;9.244;2022-12-01T03:58:51;27.00;;;17.73;;
7193;SDS011;3638;48.820;9.244;2022-12-01T04:01:22;27.23;;;17.80;;
7193;SDS011;3638;48.820;9.244;2022-12-01T04:03:51;32.20;;;19.37;;
7193;SDS011;3638;48.820;9.244;2022-12-01T04:06:18;29.37;;;20.30;;
7193;SDS011;3638;48.820;9.244;2022-12-01T04:08:45;29.60;;;19.73;;
7193;SDS011;3638;48.820;9.244;2022-12-01T04:11:12;29.60;;;19.23;;
7193;SDS011;3638;48.820;9.244;2022-12-01T04:13:56;27.23;;;18.30;;
7193;SDS011;3638;48.820;9.244;2022-12-01T04:16:23;30.63;;;19.03;;
7193;SDS011;3638;48.820;9.244;2022-12-01T04:18:51;25.63;;;17.70;;
7193;SDS011;3638;48.820;9.244;2022-12-01T04:21:18;26.50;;;18.07;;
7193;SDS011;3638;48.820;9.244;2022-12-01T04:23:45;26.17;;;17.73;;
7193;SDS011;3638;48.820;9.244;2022-12-01T04:26:28;25.57;;;17.23;;
7193;SDS011;3638;48.820;9.244;2022-12-01T04:28:57;24.80;;;17.37;;
7193;SDS011;3638;48.820;9.244;2022-12-01T04:31:24;24.57;;;18.13;;
7193;SDS011;3638;48.820;9.244;2022-12-01T04:33:54;26.37;;;18.07;;
7193;SDS011;3638;48.820;9.244;2022-12-01T04:36:21;29.20;;;17.93;;
7193;SDS011;3638;48.820;9.244;2022-12-01T04:38:48;26.83;;;17.97;;
7193;SDS011;3638;48.820;9.244;2022-12-01T04:41:15;28.10;;;18.87;;
7193;SDS011;3638;48.820;9.244;2022-12-01T04:43:42;26.70;;;18.70;;
7193;SDS011;3638;48.820;9.244;2022-12-01T04:46:09;25.70;;;18.40;;
7193;SDS011;3638;48.820;9.244;2022-12-01T04:48:37;28.97;;;19.77;;
7193;SDS011;3638;48.820;9.244;2022-12-01T04:51:06;28.27;;;19.00;;
7193;SDS011;3638;48.820;9.244;2022-12-01T04:53:34;29.93;;;19.77;;
7193;SDS011;3638;48.820;9.244;2022-12-01T04:56:02;27.33;;;17.93;;
7193;SDS011;3638;48.820;9.244;2022-12-01T04:58:30;28.10;;;19.13;;
7193;SDS011;3638;48.820;9.244;2022-12-01T05:00:59;29.00;;;18.90;;
7193;SDS011;3638;48.820;9.244;2022-12-01T05:03:27;32.07;;;19.90;;
7193;SDS011;3638;48.820;9.244;2022-12-01T05:05:59;29.20;;;19.77;;
7193;SDS011;3638;48.820;9.244;2022-12-01T05:08:28;28.70;;;19.40;;
7193;SDS011;3638;48.820;9.244;2022-12-01T05:10:55;26.73;;;18.40;;
7193;SDS011;3638;48.820;9.244;2022-12-01T05:13:22;27.57;;;19.17;;
7193;SDS011;3638;48.820;9.244;2022-12-01T05:15:49;27.33;;;19.07;;
7193;SDS011;3638;48.820;9.244;2022-12-01T05:18:16;29.03;;;18.53;;
7193;SDS011;3638;48.820;9.244;2022-12-01T05:20:43;31.03;;;19.77;;
7193;SDS011;3638;48.820;9.244;2022-12-01T05:23:21;31.20;;;18.93;;
7193;SDS011;3638;48.820;9.244;2022-12-01T05:25:50;29.50;;;19.87;;
7193;SDS011;3638;48.820;9.244;2022-12-01T05:28:17;29.87;;;19.80;;
7193;SDS011;3638;48.820;9.244;2022-12-01T05:30:44;29.67;;;19.83;;
7193;SDS011;3638;48.820;9.244;2022-12-01T05:33:11;26.43;;;18.73;;
7193;SDS011;3638;48.820;9.244;2022-12-01T05:35:38;26.60;;;18.33;;
7193;SDS011;3638;48.820;9.244;2022-12-01T05:38:05;29.93;;;19.90;;
7193;SDS011;3638;48.820;9.244;2022-12-01T05:40:32;28.33;;;19.40;;
7193;SDS011;3638;48.820;9.244;2022-12-01T05:43:01;29.30;;;20.33;;
7193;SDS011;3638;48.820;9.244;2022-12-01T05:45:28;34.53;;;20.50;;
7193;SDS011;3638;48.820;9.244;2022-12-01T05:47:57;33.30;;;20.43;;
7193;SDS011;3638;48.820;9.244;2022-12-01T05:50:25;30.87;;;20.50;;
7193;SDS011;3638;48.820;9.244;2022-12-01T05:52:54;28.37;;;20.43;;
7193;SDS011;3638;48.820;9.244;2022-12-01T05:55:21;28.57;;;19.47;;
7193;SDS011;3638;48.820;9.244;2022-12-01T05:57:48;26.30;;;19.07;;
7193;SDS011;3638;48.820;9.244;2022-12-01T06:00:17;29.17;;;19.10;;
7193;SDS011;3638;48.820;9.244;2022-12-01T06:02:45;27.57;;;19.07;;
7193;SDS011;3638;48.820;9.244;2022-12-01T06:05:12;29.67;;;19.73;;
7193;SDS011;3638;48.820;9.244;2022-12-01T06:07:38;31.90;;;21.17;;
7193;SDS011;3638;48.820;9.244;2022-12-01T06:10:06;29.90;;;20.03;;
7193;SDS011;3638;48.820;9.244;2022-12-01T06:12:34;30.97;;;20.10;;
7193;SDS011;3638;48.820;9.244;2022-12-01T06:15:01;32.87;;;20.97;;
7193;SDS011;3638;48.820;9.244;2022-12-01T06:17:31;29.93;;;19.50;;
7193;SDS011;3638;48.820;9.244;2022-12-01T06:19:59;29.83;;;19.93;;
7193;SDS011;3638;48.820;9.244;2022-12-01T06:22:26;31.73;;;21.00;;
7193;SDS011;3638;48.820;9.244;2022-12-01T06:24:53;26.83;;;19.03;;
7193;SDS011;3638;48.820;9.244;2022-12-01T06:27:20;28.33;;;19.07;;
7193;SDS011;3638;48.820;9.244;2022-12-01T06:29:47;30.30;;;20.20;;
7193;SDS011;3638;48.820;9.244;2022-12-01T06:32:14;30.23;;;20.70;;
7193;SDS011;3638;48.820;9.244;2022-12-01T06:34:42;29.87;;;20.17;;
7193;SDS011;3638;48.820;9.244;2022-12-01T06:37:09;30.93;;;20.20;;
7193;SDS011;3638;48.820;9.244;2022-12-01T06:39:39;31.40;;;20.10;;
7193;SDS011;3638;48.820;9.244;2022-12-01T06:42:06;32.27;;;20.67;;
7193;SDS011;3638;48.820;9.244;2022-12-01T06:44:33;29.03;;;19.33;;
7193;SDS011;3638;48.820;9.244;2022-12-01T06:47:00;31.33;;;20.60;;
7193;SDS011;3638;48.820;9.244;2022-12-01T06:49:27;31.60;;;20.27;;
7193;SDS011;3638;48.820;9.244;2022-12-01T06:51:55;30.93;;;19.17;;
7193;SDS011;3638;48.820;9.244;2022-12-01T06:54:22;29.50;;;19.13;;
7193;SDS011;3638;48.820;9.244;2022-12-01T06:56:49;30.97;;;19.03;;
7193;SDS011;3638;48.820;9.244;2022-12-01T06:59:16;33.07;;;20.67;;
7193;SDS011;3638;48.820;9.244;2022-12-01T07:01:43;31.50;;;19.90;;
7193;SDS011;3638;48.820;9.244;2022-12-01T07:04:10;28.73;;;19.97;;
7193;SDS011;3638;48.820;9.244;2022-12-01T07:06:38;30.00;;;19.63;;
7193;SDS011;3638;48.820;9.244;2022-12-01T07:09:07;26.73;;;18.93;;
7193;SDS011;3638;48.820;9.244;2022-12-01T07:11:34;29.57;;;20.27;;
7193;SDS011;3638;48.820;9.244;2022-12-01T07:14:01;33.33;;;20.50;;
7193;SDS011;3638;48.820;9.244;2022-12-01T07:16:28;31.83;;;19.37;;
7193;SDS011;3638;48.820;9.244;2022-12-01T07:18:55;29.90;;;19.33;;
7193;SDS011;3638;48.820;9.244;2022-12-01T07:21:23;28.00;;;19.07;;
7193;SDS011;3638;48.820;9.244;2022-12-01T07:23:50;28.17;;;19.03;;
7193;SDS011;3638;48.820;9.244;2022-12-01T07:26:19;33.33;;;20.73;;
7193;SDS011;3638;48.820;9.244;2022-12-01T07:28:46;26.60;;;18.53;;
7193;SDS011;3638;48.820;9.244;2022-12-01T07:31:13;28.97;;;18.83;;
7193;SDS011;3638;48.820;9.244;2022-12-01T07:33:42;29.93;;;19.87;;
7193;SDS011;3638;48.820;9.244;2022-12-01T07:36:10;30.27;;;19.80;;
7193;SDS011;3638;48.820;9.244;2022-12-01T07:38:38;32.07;;;19.93;;
7193;SDS011;3638;48.820;9.244;2022-12-01T07:41:06;29.93;;;20.17;;
7193;SDS011;3638;48.820;9.244;2022-12-01T07:43:35;35.37;;;20.53;;
7193;SDS011;3638;48.820;9.244;2022-12-01T07:46:06;35.70;;;20.87;;
7193;SDS011;3638;48.820;9.244;2022-12-01T07:48:35;34.63;;;20.60;;
7193;SDS011;3638;48.820;9.244;2022-12-01T07:51:03;32.77;;;20.60;;
7193;SDS011;3638;48.820;9.244;2022-12-01T07:53:31;29.47;;;19.30;;
7193;SDS011;3638;48.820;9.244;2022-12-01T07:55:59;29.07;;;18.83;;
7193;SDS011;3638;48.820;9.244;2022-12-01T07:58:26;28.03;;;19.00;;
7193;SDS011;3638;48.820;9.244;2022-12-01T08:00:54;30.83;;;19.73;;
7193;SDS011;3638;48.820;9.244;2022-12-01T08:03:22;28.87;;;19.27;;
7193;SDS011;3638;48.820;9.244;2022-12-01T08:05:54;27.03;;;18.47;;
7193;SDS011;3638;48.820;9.244;2022-12-01T08:08:22;30.97;;;19.97;;
7193;SDS011;3638;48.820;9.244;2022-12-01T08:10:50;29.03;;;19.20;;
7193;SDS011;3638;48.820;9.244;2022-12-01T08:13:17;28.70;;;19.10;;
7193;SDS011;3638;48.820;9.244;2022-12-01T08:15:45;30.40;;;19.37;;
7193;SDS011;3638;48.820;9.244;2022-12-01T08:18:13;26.93;;;18.03;;
7193;SDS011;3638;48.820;9.244;2022-12-01T08:20:40;27.97;;;19.07;;
7193;SDS011;3638;48.820;9.244;2022-12-01T08:23:07;33.83;;;18.50;;
7193;SDS011;3638;48.820;9.244;2022-12-01T08:25:34;29.33;;;18.93;;
7193;SDS011;3638;48.820;9.244;2022-12-01T08:28:01;29.07;;;18.73;;
7193;SDS011;3638;48.820;9.244;2022-12-01T08:30:28;27.80;;;17.60;;
7193;SDS011;3638;48.820;9.244;2022-12-01T08:32:56;29.60;;;18.83;;
7193;SDS011;3638;48.820;9.244;2022-12-01T08:35:25;26.73;;;17.77;;
7193;SDS011;3638;48.820;9.244;2022-12-01T08:37:52;26.47;;;17.23;;
7193;SDS011;3638;48.820;9.244;2022-12-01T08:40:19;26.47;;;18.23;;
7193;SDS011;3638;48.820;9.244;2022-12-01T08:42:47;29.03;;;18.67;;
7193;SDS011;3638;48.820;9.244;2022-12-01T08:45:14;29.47;;;18.13;;
7193;SDS011;3638;48.820;9.244;2022-12-01T08:47:41;27.73;;;18.60;;
7193;SDS011;3638;48.820;9.244;2022-12-01T08:50:08;27.27;;;18.17;;
7193;SDS011;3638;48.820;9.244;2022-12-01T08:52:37;27.67;;;18.33;;
7193;SDS011;3638;48.820;9.244;2022-12-01T08:55:04;25.63;;;17.43;;
7193;SDS011;3638;48.820;9.244;2022-12-01T08:57:33;29.37;;;18.07;;
7193;SDS011;3638;48.820;9.244;2022-12-01T09:00:00;27.80;;;19.20;;
7193;SDS011;3638;48.820;9.244;2022-12-01T09:02:27;24.77;;;18.00;;
7193;SDS011;3638;48.820;9.244;2022-12-01T09:04:54;26.70;;;18.07;;
7193;SDS011;3638;48.820;9.244;2022-12-01T09:07:21;27.97;;;19.17;;
7193;SDS011;3638;48.820;9.244;2022-12-01T09:09:49;28.13;;;18.40;;
7193;SDS011;3638;48.820;9.244;2022-12-01T09:12:16;29.70;;;17.83;;
7193;SDS011;3638;48.820;9.244;2022-12-01T09:14:43;32.30;;;19.43;;
7193;SDS011;3638;48.820;9.244;2022-12-01T09:17:12;26.37;;;17.97;;
7193;SDS011;3638;48.820;9.244;2022-12-01T09:19:40;28.03;;;18.83;;
7193;SDS011;3638;48.820;9.244;2022-12-01T09:22:07;31.50;;;18.40;;
7193;SDS011;3638;48.820;9.244;2022-12-01T09:24:35;31.00;;;18.20;;
7193;SDS011;3638;48.820;9.244;2022-12-01T09:27:03;29.93;;;17.43;;
7193;SDS011;3638;48.820;9.244;2022-12-01T09:29:31;24.47;;;17.17;;
7193;SDS011;3638;48.820;9.244;2022-12-01T09:31:58;25.93;;;17.17;;
7193;SDS011;3638;48.820;9.244;2022-12-01T09:34:26;24.23;;;17.37;;
7193;SDS011;3638;48.820;9.244;2022-12-01T09:36:54;26.77;;;18.13;;
7193;SDS011;3638;48.820;9.244;2022-12-01T09:39:22;26.90;;;18.23;;
7193;SDS011;3638;48.820;9.244;2022-12-01T09:41:51;26.73;;;17.93;;
7193;SDS011;3638;48.820;9.244;2022-12-01T09:44:28;24.80;;;16.53;;
7193;SDS011;3638;48.820;9.244;2022-12-01T09:47:06;26.30;;;17.20;;
7193;SDS011;3638;48.820;9.244;2022-12-01T09:49:51;26.63;;;17.30;;
7193;SDS011;3638;48.820;9.244;2022-12-01T09:52:24;25.27;;;17.17;;
7193;SDS011;3638;48.820;9.244;2022-12-01T09:54:54;27.87;;;18.03;;
7193;SDS011;3638;48.820;9.244;2022-12-01T09:57:28;24.37;;;17.20;;
7193;SDS011;3638;48.820;9.244;2022-12-01T10:00:03;24.53;;;16.40;;
7193;SDS011;3638;48.820;9.244;2022-12-01T10:02:34;24.93;;;17.17;;
7193;SDS011;3638;48.820;9.244;2022-12-01T10:05:09;26.60;;;17.30;;
7193;SDS011;3638;48.820;9.244;2022-12-01T10:07:42;27.13;;;17.80;;
7193;SDS011;3638;48.820;9.244;2022-12-01T10:10:13;24.47;;;16.77;;
7193;SDS011;3638;48.820;9.244;2022-12-01T10:12:44;23.53;;;17.37;;
7193;SDS011;3638;48.820;9.244;2022-12-01T10:15:15;36.30;;;19.13;;
7193;SDS011;3638;48.820;9.244;2022-12-01T10:17:56;30.13;;;18.43;;
7193;SDS011;3638;48.820;9.244;2022-12-01T10:20:40;26.07;;;17.60;;
7193;SDS011;3638;48.820;9.244;2022-12-01T10:23:15;25.20;;;17.80;;
7193;SDS011;3638;48.820;9.244;2022-12-01T10:25:56;22.30;;;16.70;;
7193;SDS011;3638;48.820;9.244;2022-12-01T10:28:41;23.13;;;16.67;;
7193;SDS011;3638;48.820;9.244;2022-12-01T10:31:20;25.63;;;18.07;;
7193;SDS011;3638;48.820;9.244;2022-12-01T10:33:57;24.70;;;16.87;;
7193;SDS011;3638;48.820;9.244;2022-12-01T10:36:27;25.53;;;18.00;;
7193;SDS011;3638;48.820;9.244;2022-12-01T10:38:58;27.23;;;17.53;;
7193;SDS011;3638;48.820;9.244;2022-12-01T10:41:26;33.07;;;18.43;;
7193;SDS011;3638;48.820;9.244;2022-12-01T10:43:56;26.20;;;17.40;;
7193;SDS011;3638;48.820;9.244;2022-12-01T10:46:28;25.47;;;17.77;;
7193;SDS011;3638;48.820;9.244;2022-12-01T10:49:06;26.90;;;17.10;;
7193;SDS011;3638;48.820;9.244;2022-12-01T10:51:44;26.00;;;17.60;;
7193;SDS011;3638;48.820;9.244;2022-12-01T10:54:17;25.53;;;16.80;;
7193;SDS011;3638;48.820;9.244;2022-12-01T10:56:46;25.30;;;18.13;;
7193;SDS011;3638;48.820;9.244;2022-12-01T10:59:22;27.97;;;17.57;;
7193;SDS011;3638;48.820;9.244;2022-12-01T11:01:58;24.67;;;17.30;;
7193;SDS011;3638;48.820;9.244;2022-12-01T11:04:28;23.97;;;17.57;;
7193;SDS011;3638;48.820;9.244;2022-12-01T11:07:13;27.23;;;17.43;;
7193;SDS011;3638;48.820;9.244;2022-12-01T11:09:44;28.17;;;18.63;;
7193;SDS011;3638;48.820;9.244;2022-12-01T11:12:29;26.30;;;17.37;;
7193;SDS011;3638;48.820;9.244;2022-12-01T11:14:58;27.67;;;18.13;;
7193;SDS011;3638;48.820;9.244;2022-12-01T11:17:28;29.10;;;18.40;;
7193;SDS011;3638;48.820;9.244;2022-12-01T11:19:58;26.40;;;17.73;;
7193;SDS011;3638;48.820;9.244;2022-12-01T11:25:59;25.20;;;17.27;;
7193;SDS011;3638;48.820;9.244;2022-12-01T11:28:31;25.93;;;17.67;;
7193;SDS011;3638;48.820;9.244;2022-12-01T11:31:00;26.30;;;18.20;;
7193;SDS011;3638;48.820;9.244;2022-12-01T11:33:32;23.67;;;17.07;;
7193;SDS011;3638;48.820;9.244;2022-12-01T11:36:09;26.60;;;17.83;;
7193;SDS011;3638;48.820;9.244;2022-12-01T11:38:56;25.67;;;17.17;;
7193;SDS011;3638;48.820;9.244;2022-12-01T11:41:27;24.77;;;15.80;;
7193;SDS011;3638;48.820;9.244;2022-12-01T11:43:59;25.37;;;17.13;;
7193;SDS011;3638;48.820;9.244;2022-12-01T11:46:32;23.63;;;16.47;;
7193;SDS011;3638;48.820;9.244;2022-12-01T11:49:03;29.83;;;17.50;;
7193;SDS011;3638;48.820;9.244;2022-12-01T11:51:30;23.80;;;16.70;;
7193;SDS011;3638;48.820;9.244;2022-12-01T11:54:05;22.43;;;16.20;;
7193;SDS011;3638;48.820;9.244;2022-12-01T11:56:41;23.47;;;17.07;;
7193;SDS011;3638;48.820;9.244;2022-12-01T11:59:10;24.57;;;16.60;;
7193;SDS011;3638;48.820;9.244;2022-12-01T12:01:52;23.93;;;16.60;;
7193;SDS011;3638;48.820;9.244;2022-12-01T12:04:38;24.13;;;16.37;;
7193;SDS011;3638;48.820;9.244;2022-12-01T12:07:23;24.83;;;16.33;;
7193;SDS011;3638;48.820;9.244;2022-12-01T12:10:02;26.40;;;16.40;;
7193;SDS011;3638;48.820;9.244;2022-12-01T12:12:49;22.97;;;16.17;;
7193;SDS011;3638;48.820;9.244;2022-12-01T12:15:32;24.60;;;16.10;;
7193;SDS011;3638;48.820;9.244;2022-12-01T12:18:17;25.43;;;16.73;;
7193;SDS011;3638;48.820;9.244;2022-12-01T12:21:07;23.77;;;16.57;;
7193;SDS011;3638;48.820;9.244;2022-12-01T12:23:53;23.50;;;15.50;;
7193;SDS011;3638;48.820;9.244;2022-12-01T12:26:58;24.23;;;16.53;;
7193;SDS011;3638;48.820;9.244;2022-12-01T12:29:41;20.90;;;15.63;;
7193;SDS011;3638;48.820;9.244;2022-12-01T12:32:31;25.80;;;16.63;;
7193;SDS011;3638;48.820;9.244;2022-12-01T12:35:16;25.77;;;15.73;;
7193;SDS011;3638;48.820;9.244;2022-12-01T12:38:00;22.10;;;15.97;;
7193;SDS011;3638;48.820;9.244;2022-12-01T12:41:09;24.39;;;16.23;;
7193;SDS011;3638;48.820;9.244;2022-12-01T12:43:48;23.13;;;15.57;;
7193;SDS011;3638;48.820;9.244;2022-12-01T12:46:28;21.70;;;15.50;;
7193;SDS011;3638;48.820;9.244;2022-12-01T12:49:10;24.30;;;16.23;;
7193;SDS011;3638;48.820;9.244;2022-12-01T12:51:53;20.80;;;15.60;;
7193;SDS011;3638;48.820;9.244;2022-12-01T12:54:26;25.27;;;15.93;;
7193;SDS011;3638;48.820;9.244;2022-12-01T12:56:59;23.97;;;15.67;;
7193;SDS011;3638;48.820;9.244;2022-12-01T12:59:33;24.83;;;16.07;;
7193;SDS011;3638;48.820;9.244;2022-12-01T13:02:09;23.77;;;15.33;;
7193;SDS011;3638;48.820;9.244;2022-12-01T13:04:41;25.17;;;16.50;;
7193;SDS011;3638;48.820;9.244;2022-12-01T13:07:21;22.57;;;16.37;;
7193;SDS011;3638;48.820;9.244;2022-12-01T13:10:02;23.93;;;15.60;;
7193;SDS011;3638;48.820;9.244;2022-12-01T13:12:42;23.80;;;15.77;;
7193;SDS011;3638;48.820;9.244;2022-12-01T13:15:19;23.07;;;16.30;;
7193;SDS011;3638;48.820;9.244;2022-12-01T13:17:47;24.47;;;16.17;;
7193;SDS011;3638;48.820;9.244;2022-12-01T13:20:18;23.77;;;16.30;;
7193;SDS011;3638;48.820;9.244;2022-12-01T13:22:51;21.20;;;15.30;;
7193;SDS011;3638;48.820;9.244;2022-12-01T13:25:22;21.33;;;15.20;;
7193;SDS011;3638;48.820;9.244;2022-12-01T13:27:54;22.53;;;14.97;;
7193;SDS011;3638;48.820;9.244;2022-12-01T13:30:23;25.83;;;16.60;;
7193;SDS011;3638;48.820;9.244;2022-12-01T13:32:56;23.03;;;15.80;;
7193;SDS011;3638;48.820;9.244;2022-12-01T13:35:27;24.07;;;15.57;;
7193;SDS011;3638;48.820;9.244;2022-12-01T13:38:16;23.17;;;15.53;;
7193;SDS011;3638;48.820;9.244;2022-12-01T13:40:48;22.40;;;15.23;;
7193;SDS011;3638;48.820;9.244;2022-12-01T13:43:35;23.30;;;16.13;;
7193;SDS011;3638;48.820;9.244;2022-12-01T13:46:03;22.83;;;15.57;;
7193;SDS011;3638;48.820;9.244;2022-12-01T13:51:16;22.83;;;15.33;;
7193;SDS011;3638;48.820;9.244;2022-12-01T13:56:37;26.03;;;16.23;;
7193;SDS011;3638;48.820;9.244;2022-12-01T14:02:28;22.17;;;15.07;;
7193;SDS011;3638;48.820;9.244;2022-12-01T14:08:12;24.13;;;15.60;;
7193;SDS011;3638;48.820;9.244;2022-12-01T14:10:42;19.87;;;14.47;;
7193;SDS011;3638;48.820;9.244;2022-12-01T14:13:21;23.67;;;15.63;;
7193;SDS011;3638;48.820;9.244;2022-12-01T14:15:54;22.57;;;15.47;;
7193;SDS011;3638;48.820;9.244;2022-12-01T14:18:28;21.90;;;16.07;;
7193;SDS011;3638;48.820;9.244;2022-12-01T14:20:59;25.80;;;15.17;;
7193;SDS011;3638;48.820;9.244;2022-12-01T14:23:28;22.57;;;15.17;;
7193;SDS011;3638;48.820;9.244;2022-12-01T14:29:07;22.53;;;15.00;;
7193;SDS011;3638;48.820;9.244;2022-12-01T14:32:18;20.83;;;15.03;;
7193;SDS011;3638;48.820;9.244;2022-12-01T14:37:47;23.53;;;15.67;;
7193;SDS011;3638;48.820;9.244;2022-12-01T14:40:20;22.73;;;15.10;;
7193;SDS011;3638;48.820;9.244;2022-12-01T14:42:55;23.80;;;15.70;;
7193;SDS011;3638;48.820;9.244;2022-12-01T14:45:45;20.57;;;14.30;;
7193;SDS011;3638;48.820;9.244;2022-12-01T14:48:22;24.80;;;16.07;;
7193;SDS011;3638;48.820;9.244;2022-12-01T14:51:06;18.67;;;14.20;;
7193;SDS011;3638;48.820;9.244;2022-12-01T14:53:42;21.50;;;15.20;;
7193;SDS011;3638;48.820;9.244;2022-12-01T14:56:12;21.60;;;15.50;;
7193;SDS011;3638;48.820;9.244;2022-12-01T14:58:50;21.73;;;15.50;;
7193;SDS011;3638;48.820;9.244;2022-12-01T15:01:21;23.10;;;16.40;;
7193;SDS011;3638;48.820;9.244;2022-12-01T15:03:51;23.47;;;16.60;;
7193;SDS011;3638;48.820;9.244;2022-12-01T15:06:23;23.23;;;16.53;;
7193;SDS011;3638;48.820;9.244;2022-12-01T15:09:06;23.90;;;16.07;;
7193;SDS011;3638;48.820;9.244;2022-12-01T15:11:37;21.10;;;14.90;;
7193;SDS011;3638;48.820;9.244;2022-12-01T15:14:20;20.57;;;14.90;;
7193;SDS011;3638;48.820;9.244;2022-12-01T15:16:54;22.20;;;14.50;;
7193;SDS011;3638;48.820;9.244;2022-12-01T15:19:22;31.50;;;16.40;;
7193;SDS011;3638;48.820;9.244;2022-12-01T15:21:55;22.37;;;15.10;;
7193;SDS011;3638;48.820;9.244;2022-12-01T15:24:23;22.10;;;14.47;;
7193;SDS011;3638;48.820;9.244;2022-12-01T15:26:53;23.53;;;15.40;;
7193;SDS011;3638;48.820;9.244;2022-12-01T15:29:22;22.70;;;15.03;;
7193;SDS011;3638;48.820;9.244;2022-12-01T15:31:52;24.30;;;15.40;;
7193;SDS011;3638;48.820;9.244;2022-12-01T15:34:24;20.20;;;15.10;;
7193;SDS011;3638;48.820;9.244;2022-12-01T15:36:57;19.97;;;14.27;;
7193;SDS011;3638;48.820;9.244;2022-12-01T15:39:28;24.17;;;14.97;;
7193;SDS011;3638;48.820;9.244;2022-12-01T15:41:58;24.87;;;15.17;;